createdAt,value
2023-04-16T00:02:05.793Z,97789.22
2023-04-16T00:04:33.064Z,97790.47
2023-04-16T00:07:00.450Z,97793.19
2023-04-16T00:09:29.057Z,97791.41
2023-04-16T00:11:56.339Z,97793.16
2023-04-16T00:14:23.553Z,97790.88
2023-04-16T00:16:51.139Z,97794.06
2023-04-16T00:19:18.356Z,97786.38
2023-04-16T00:21:45.400Z,97792.06
2023-04-16T00:24:12.839Z,97789.34
2023-04-16T00:26:40.901Z,97791.78
2023-04-16T00:29:08.574Z,97796.50
2023-04-16T00:31:37.265Z,97808.13
2023-04-16T00:34:04.564Z,97807.63
2023-04-16T00:36:31.677Z,97810.34
2023-04-16T00:38:58.808Z,97804.16
2023-04-16T00:41:26.773Z,97806.94
2023-04-16T00:43:54.191Z,97806.22
2023-04-16T00:46:22.475Z,97801.03
2023-04-16T00:48:51.540Z,97802.78
2023-04-16T00:51:20.076Z,97803.84
2023-04-16T00:53:47.292Z,97800.88
2023-04-16T00:56:14.860Z,97797.72
2023-04-16T00:58:41.995Z,97800.66
2023-04-16T01:01:09.082Z,97806.84
2023-04-16T01:03:43.720Z,97808.31
2023-04-16T01:06:11.724Z,97811.84
2023-04-16T01:08:47.037Z,97816.81
2023-04-16T01:11:16.163Z,97822.78
2023-04-16T01:13:43.426Z,97811.13
2023-04-16T01:16:12.148Z,97818.66
2023-04-16T01:18:40.442Z,97819.44
2023-04-16T01:21:08.618Z,97815.28
2023-04-16T01:23:38.430Z,97816.31
2023-04-16T01:26:06.468Z,97825.19
2023-04-16T01:28:36.376Z,97826.38
2023-04-16T01:31:03.959Z,97827.59
2023-04-16T01:33:31.409Z,97827.59
2023-04-16T01:35:59.345Z,97825.09
2023-04-16T01:38:28.236Z,97830.09
2023-04-16T01:40:57.565Z,97836.53
2023-04-16T01:43:26.226Z,97836.59
2023-04-16T01:46:14.893Z,97834.34
2023-04-16T01:48:42.464Z,97842.56
2023-04-16T01:51:10.162Z,97837.84
2023-04-16T01:53:37.360Z,97829.91
2023-04-16T01:56:04.755Z,97830.66
2023-04-16T01:58:32.416Z,97834.16
2023-04-16T02:01:00.665Z,97835.13
2023-04-16T02:03:28.371Z,97838.59
2023-04-16T02:05:55.982Z,97842.81
2023-04-16T02:08:23.743Z,97844.06
2023-04-16T02:10:52.433Z,97843.34
2023-04-16T02:13:20.426Z,97837.22
2023-04-16T02:15:49.826Z,97842.88
2023-04-16T02:18:17.835Z,97842.38
2023-04-16T02:20:47.078Z,97847.56
2023-04-16T02:23:17.944Z,97834.72
2023-04-16T02:25:47.238Z,97854.00
2023-04-16T02:28:16.857Z,97844.59
2023-04-16T02:30:44.767Z,97848.78
2023-04-16T02:33:13.594Z,97857.72
2023-04-16T02:35:41.659Z,97854.50
2023-04-16T02:38:10.359Z,97855.25
2023-04-16T02:40:39.124Z,97856.47
2023-04-16T02:43:07.542Z,97864.16
2023-04-16T02:45:35.709Z,97862.91
2023-04-16T02:48:03.887Z,97863.19
2023-04-16T02:50:32.060Z,97865.91
2023-04-16T02:53:01.572Z,97866.66
2023-04-16T02:55:30.190Z,97863.94
2023-04-16T02:57:57.716Z,97869.38
2023-04-16T03:00:25.974Z,97867.41
2023-04-16T03:02:55.257Z,97869.63
2023-04-16T03:05:22.945Z,97874.81
2023-04-16T03:07:57.010Z,97874.09
2023-04-16T03:10:24.846Z,97873.56
2023-04-16T03:12:53.000Z,97880.25
2023-04-16T03:15:20.786Z,97879.81
2023-04-16T03:17:48.835Z,97881.50
2023-04-16T03:20:17.106Z,97875.56
2023-04-16T03:22:44.213Z,97880.50
2023-04-16T03:25:11.676Z,97871.88
2023-04-16T03:27:41.734Z,97887.47
2023-04-16T03:30:11.046Z,97880.03
2023-04-16T03:32:38.577Z,97886.44
2023-04-16T03:35:07.583Z,97882.22
2023-04-16T03:37:34.782Z,97885.41
2023-04-16T03:40:02.040Z,97883.44
2023-04-16T03:42:29.109Z,97880.22
2023-04-16T03:44:56.175Z,97890.38
2023-04-16T03:47:23.585Z,97887.16
2023-04-16T03:49:50.962Z,97893.13
2023-04-16T03:52:18.043Z,97893.63
2023-04-16T03:54:45.351Z,97898.56
2023-04-16T03:57:12.415Z,97898.56
2023-04-16T03:59:39.480Z,97901.06
2023-04-16T04:02:06.703Z,97899.81
2023-04-16T04:04:33.941Z,97906.22
2023-04-16T04:07:01.165Z,97913.66
2023-04-16T04:09:28.238Z,97907.75
2023-04-16T04:11:55.442Z,97915.41
2023-04-16T04:14:22.468Z,97924.53
2023-04-16T04:16:49.502Z,97914.44
2023-04-16T04:19:16.916Z,97916.72
2023-04-16T04:21:43.964Z,97920.69
2023-04-16T04:24:11.379Z,97922.19
2023-04-16T04:26:38.543Z,97921.94
2023-04-16T04:29:05.695Z,97940.00
2023-04-16T04:31:33.045Z,97931.84
2023-04-16T04:34:00.182Z,97932.09
2023-04-16T04:36:27.438Z,97931.13
2023-04-16T04:38:54.547Z,97934.59
2023-04-16T04:41:21.872Z,97940.53
2023-04-16T04:43:48.972Z,97941.03
2023-04-16T04:46:16.183Z,97946.19
2023-04-16T04:48:43.302Z,97943.97
2023-04-16T04:51:10.531Z,97950.38
2023-04-16T04:53:37.584Z,97954.84
2023-04-16T04:56:12.091Z,97957.06
2023-04-16T04:58:41.004Z,97950.63
2023-04-16T05:01:08.122Z,97957.31
2023-04-16T05:03:35.485Z,97954.56
2023-04-16T05:06:02.821Z,97963.47
2023-04-16T05:08:30.223Z,97969.16
2023-04-16T05:10:57.356Z,97964.97
2023-04-16T05:13:24.442Z,97973.38
2023-04-16T05:15:51.503Z,97972.63
2023-04-16T05:18:18.855Z,97973.59
2023-04-16T05:20:46.084Z,97982.25
2023-04-16T05:23:13.181Z,97979.78
2023-04-16T05:25:40.250Z,97980.03
2023-04-16T05:28:07.326Z,97984.22
2023-04-16T05:30:34.404Z,97988.94
2023-04-16T05:33:01.743Z,97987.69
2023-04-16T05:35:28.864Z,97993.66
2023-04-16T05:37:55.897Z,97992.66
2023-04-16T05:40:23.039Z,98005.75
2023-04-16T05:42:50.488Z,97999.09
2023-04-16T05:45:17.659Z,98009.44
2023-04-16T05:47:44.756Z,98018.38
2023-04-16T05:50:11.814Z,98017.38
2023-04-16T05:52:39.015Z,98018.88
2023-04-16T05:55:07.089Z,98018.13
2023-04-16T05:57:34.214Z,98003.53
2023-04-16T06:00:01.646Z,98010.69
2023-04-16T06:02:30.531Z,98017.88
2023-04-16T06:04:57.704Z,98010.22
2023-04-16T06:07:24.781Z,98013.19
2023-04-16T06:09:51.850Z,98014.16
2023-04-16T06:12:18.918Z,98022.06
2023-04-16T06:14:45.988Z,98019.88
2023-04-16T06:17:13.026Z,98023.81
2023-04-16T06:19:40.769Z,98015.63
2023-04-16T06:22:07.899Z,98021.09
2023-04-16T06:24:34.936Z,98024.53
2023-04-16T06:27:02.777Z,98030.97
2023-04-16T06:29:40.665Z,98029.00
2023-04-16T06:32:09.105Z,98040.84
2023-04-16T06:34:38.502Z,98033.44
2023-04-16T06:37:06.707Z,98043.84
2023-04-16T06:39:35.205Z,98032.47
2023-04-16T06:42:02.641Z,98036.91
2023-04-16T06:44:29.733Z,98036.91
2023-04-16T06:46:56.844Z,98033.69
2023-04-16T06:49:24.230Z,98038.13
2023-04-16T06:51:51.642Z,98044.06
2023-04-16T06:54:19.732Z,98046.28
2023-04-16T06:56:46.880Z,98053.69
2023-04-16T06:59:14.200Z,98048.25
2023-04-16T07:01:41.512Z,98051.16
2023-04-16T07:04:09.523Z,98056.59
2023-04-16T07:06:36.629Z,98053.59
2023-04-16T07:09:03.793Z,98056.81
2023-04-16T07:11:31.527Z,98053.31
2023-04-16T07:13:58.988Z,98052.06
2023-04-16T07:16:26.126Z,98054.75
2023-04-16T07:18:53.239Z,98059.91
2023-04-16T07:21:21.008Z,98054.66
2023-04-16T07:23:48.216Z,98061.81
2023-04-16T07:26:15.599Z,98060.28
2023-04-16T07:28:43.586Z,98057.78
2023-04-16T07:31:10.902Z,98065.13
2023-04-16T07:33:38.227Z,98067.31
2023-04-16T07:36:05.555Z,98068.72
2023-04-16T07:38:32.645Z,98070.13
2023-04-16T07:40:59.758Z,98075.06
2023-04-16T07:43:26.897Z,98078.03
2023-04-16T07:45:54.022Z,98085.69
2023-04-16T07:48:22.002Z,98084.47
2023-04-16T07:50:50.155Z,98083.16
2023-04-16T07:53:17.260Z,98079.66
2023-04-16T07:55:44.414Z,98095.25
2023-04-16T07:58:11.519Z,98091.22
2023-04-16T08:00:39.518Z,98100.38
2023-04-16T08:03:06.997Z,98096.63
2023-04-16T08:05:34.129Z,98091.88
2023-04-16T08:08:01.256Z,98095.03
2023-04-16T08:10:28.449Z,98098.69
2023-04-16T08:12:55.523Z,98093.19
2023-04-16T08:15:22.607Z,98095.63
2023-04-16T08:17:49.725Z,98098.84
2023-04-16T08:20:19.106Z,98101.75
2023-04-16T08:22:46.702Z,98109.59
2023-04-16T08:25:14.576Z,98106.22
2023-04-16T08:27:41.676Z,98111.63
2023-04-16T08:30:08.803Z,98116.00
2023-04-16T08:32:35.968Z,98120.09
2023-04-16T08:35:03.149Z,98121.06
2023-04-16T08:37:30.458Z,98123.94
2023-04-16T08:39:57.582Z,98121.38
2023-04-16T08:42:32.617Z,98122.28
2023-04-16T08:45:09.467Z,98126.91
2023-04-16T08:47:37.297Z,98129.06
2023-04-16T08:50:05.699Z,98123.75
2023-04-16T08:52:33.185Z,98129.16
2023-04-16T08:55:12.452Z,98118.56
2023-04-16T08:57:46.251Z,98132.59
2023-04-16T09:00:13.870Z,98136.97
2023-04-16T09:02:41.182Z,98134.59
2023-04-16T09:05:11.024Z,98134.53
2023-04-16T09:07:38.806Z,98135.19
2023-04-16T09:10:07.106Z,98142.06
2023-04-16T09:12:35.799Z,98141.00
2023-04-16T09:15:03.649Z,98142.47
2023-04-16T09:17:31.330Z,98140.19
2023-04-16T09:19:59.514Z,98147.34
2023-04-16T09:22:26.648Z,98148.94
2023-04-16T09:24:53.923Z,98150.97
2023-04-16T09:27:21.534Z,98147.78
2023-04-16T09:29:49.722Z,98145.78
2023-04-16T09:32:16.804Z,98149.69
2023-04-16T09:35:10.649Z,98164.22
2023-04-16T09:37:38.690Z,98164.22
2023-04-16T09:40:08.158Z,98161.78
2023-04-16T09:42:36.998Z,98164.00
2023-04-16T09:45:05.944Z,98163.50
2023-04-16T09:47:42.107Z,98161.91
2023-04-16T09:50:12.607Z,98166.34
2023-04-16T09:52:44.198Z,98166.16
2023-04-16T09:55:11.256Z,98173.91
2023-04-16T09:57:39.196Z,98168.75
2023-04-16T10:00:08.993Z,98174.56
2023-04-16T10:02:39.095Z,98174.03
2023-04-16T10:05:07.790Z,98175.31
2023-04-16T10:07:36.122Z,98176.28
2023-04-16T10:10:04.867Z,98173.84
2023-04-16T10:12:33.074Z,98190.28
2023-04-16T10:15:00.610Z,98188.50
2023-04-16T10:17:30.230Z,98184.72
2023-04-16T10:19:58.204Z,98194.00
2023-04-16T10:22:26.364Z,98193.56
2023-04-16T10:24:54.100Z,98196.50
2023-04-16T10:27:21.459Z,98195.34
2023-04-16T10:29:49.034Z,98199.06
2023-04-16T10:32:17.436Z,98198.94
2023-04-16T10:34:45.303Z,98202.84
2023-04-16T10:37:12.690Z,98203.78
2023-04-16T10:39:40.221Z,98202.53
2023-04-16T10:42:13.800Z,98204.97
2023-04-16T10:44:44.357Z,98204.22
2023-04-16T10:47:14.253Z,98199.78
2023-04-16T10:49:42.895Z,98206.75
2023-04-16T10:52:17.245Z,98209.38
2023-04-16T10:54:44.951Z,98206.13
2023-04-16T10:57:19.954Z,98205.06
2023-04-16T10:59:49.210Z,98210.22
2023-04-16T11:02:20.470Z,98206.56
2023-04-16T11:04:49.538Z,98208.66
2023-04-16T11:07:17.293Z,98204.19
2023-04-16T11:09:47.450Z,98205.25
2023-04-16T11:12:27.648Z,98206.44
2023-04-16T11:14:59.313Z,98207.72
2023-04-16T11:17:41.301Z,98205.91
2023-04-16T11:20:28.938Z,98209.19
2023-04-16T11:22:57.365Z,98202.31
2023-04-16T11:25:27.126Z,98207.38
2023-04-16T11:27:56.248Z,98205.06
2023-04-16T11:30:31.351Z,98207.91
2023-04-16T11:32:58.539Z,98214.44
2023-04-16T11:35:26.349Z,98205.59
2023-04-16T11:37:56.524Z,98214.47
2023-04-16T11:40:26.766Z,98213.81
2023-04-16T11:42:54.077Z,98218.03
2023-04-16T11:45:21.153Z,98215.09
2023-04-16T11:47:53.363Z,98223.13
2023-04-16T11:50:30.664Z,98217.31
2023-04-16T11:53:04.164Z,98219.53
2023-04-16T11:55:49.579Z,98215.09
2023-04-16T11:58:16.638Z,98213.63
2023-04-16T12:00:45.262Z,98219.06
2023-04-16T12:03:12.963Z,98211.00
2023-04-16T12:05:40.907Z,98216.03
2023-04-16T12:08:09.941Z,98207.59
2023-04-16T12:10:52.420Z,98212.06
2023-04-16T12:13:20.142Z,98213.63
2023-04-16T12:15:48.212Z,98221.81
2023-04-16T12:18:16.415Z,98218.03
2023-04-16T12:20:44.860Z,98222.31
2023-04-16T12:23:24.689Z,98232.00
2023-04-16T12:25:52.229Z,98228.53
2023-04-16T12:28:33.341Z,98233.22
2023-04-16T12:31:01.609Z,98234.13
2023-04-16T12:33:29.466Z,98230.06
2023-04-16T12:35:57.108Z,98236.69
2023-04-16T12:38:25.565Z,98229.06
2023-04-16T12:40:56.446Z,98233.88
2023-04-16T12:43:24.054Z,98236.09
2023-04-16T12:45:51.375Z,98236.16
2023-04-16T12:48:18.653Z,98231.78
2023-04-16T12:50:46.060Z,98235.63
2023-04-16T12:53:13.122Z,98237.91
2023-04-16T12:55:40.330Z,98232.66
2023-04-16T12:58:11.078Z,98238.91
2023-04-16T13:00:39.875Z,98233.75
2023-04-16T13:03:07.036Z,98239.03
2023-04-16T13:05:34.792Z,98242.00
2023-04-16T13:08:02.136Z,98238.44
2023-04-16T13:10:29.290Z,98247.22
2023-04-16T13:12:57.517Z,98239.44
2023-04-16T13:15:25.731Z,98245.78
2023-04-16T13:17:53.014Z,98245.59
2023-04-16T13:20:21.924Z,98243.78
2023-04-16T13:22:51.051Z,98233.31
2023-04-16T13:25:19.567Z,98247.38
2023-04-16T13:27:47.609Z,98242.94
2023-04-16T13:30:16.093Z,98242.75
2023-04-16T13:32:44.086Z,98248.84
2023-04-16T13:35:11.796Z,98244.84
2023-04-16T13:37:39.053Z,98249.81
2023-04-16T13:40:08.655Z,98254.03
2023-04-16T13:42:37.532Z,98254.09
2023-04-16T13:45:07.506Z,98257.06
2023-04-16T13:47:36.797Z,98256.66
2023-04-16T13:50:05.172Z,98255.38
2023-04-16T13:52:33.542Z,98262.22
2023-04-16T13:55:01.762Z,98258.06
2023-04-16T13:57:29.215Z,98252.78
2023-04-16T13:59:56.390Z,98259.34
2023-04-16T14:02:23.567Z,98258.59
2023-04-16T14:04:50.807Z,98256.59
2023-04-16T14:07:19.870Z,98259.69
2023-04-16T14:09:48.386Z,98248.16
2023-04-16T14:12:16.307Z,98263.72
2023-04-16T14:14:43.377Z,98262.66
2023-04-16T14:17:11.686Z,98258.31
2023-04-16T14:19:39.623Z,98257.25
2023-04-16T14:22:09.479Z,98258.94
2023-04-16T14:24:37.854Z,98264.03
2023-04-16T14:27:07.692Z,98258.13
2023-04-16T14:29:36.825Z,98263.41
2023-04-16T14:32:06.178Z,98263.19
2023-04-16T14:34:33.967Z,98262.81
2023-04-16T14:37:02.469Z,98270.44
2023-04-16T14:39:32.166Z,98268.75
2023-04-16T14:42:00.610Z,98266.00
2023-04-16T14:44:29.522Z,98266.00
2023-04-16T14:46:58.210Z,98269.81
2023-04-16T14:49:26.597Z,98265.91
2023-04-16T14:51:54.639Z,98278.50
2023-04-16T14:54:23.167Z,98273.44
2023-04-16T14:56:51.294Z,98270.06
2023-04-16T14:59:18.842Z,98270.19
2023-04-16T15:01:48.059Z,98273.56
2023-04-16T15:04:16.623Z,98285.19
2023-04-16T15:06:46.525Z,98278.22
2023-04-16T15:09:14.637Z,98283.50
2023-04-16T15:11:42.617Z,98278.75
2023-04-16T15:14:10.139Z,98284.03
2023-04-16T15:16:38.780Z,98285.50
2023-04-16T15:19:07.118Z,98291.53
2023-04-16T15:21:34.845Z,98286.66
2023-04-16T15:24:04.749Z,98293.41
2023-04-16T15:26:33.039Z,98290.53
2023-04-16T15:29:00.877Z,98290.44
2023-04-16T15:31:29.611Z,98287.56
2023-04-16T15:33:56.919Z,98292.09
2023-04-16T15:36:24.777Z,98288.19
2023-04-16T15:38:53.449Z,98295.03
2023-04-16T15:41:20.826Z,98294.09
2023-04-16T15:43:48.189Z,98291.88
2023-04-16T15:46:15.604Z,98302.06
2023-04-16T15:48:42.704Z,98298.69
2023-04-16T15:51:10.624Z,98300.47
2023-04-16T15:53:37.927Z,98304.06
2023-04-16T15:56:05.090Z,98310.81
2023-04-16T15:58:32.172Z,98307.66
2023-04-16T16:00:59.270Z,98314.69
2023-04-16T16:03:26.626Z,98310.81
2023-04-16T16:05:53.816Z,98308.34
2023-04-16T16:08:20.925Z,98316.16
2023-04-16T16:10:48.678Z,98318.03
2023-04-16T16:13:18.154Z,98320.41
2023-04-16T16:15:45.866Z,98323.50
2023-04-16T16:18:12.975Z,98323.38
2023-04-16T16:20:40.536Z,98325.97
2023-04-16T16:23:07.812Z,98329.22
2023-04-16T16:25:35.195Z,98326.47
2023-04-16T16:28:06.029Z,98333.31
2023-04-16T16:30:33.531Z,98325.09
2023-04-16T16:33:00.797Z,98330.13
2023-04-16T16:35:27.903Z,98320.13
2023-04-16T16:37:57.894Z,98330.84
2023-04-16T16:40:25.289Z,98337.59
2023-04-16T16:42:52.775Z,98342.84
2023-04-16T16:45:20.748Z,98341.13
2023-04-16T16:47:48.833Z,98343.66
2023-04-16T16:50:16.130Z,98337.44
2023-04-16T16:52:44.552Z,98346.22
2023-04-16T16:55:11.967Z,98348.06
2023-04-16T16:57:39.331Z,98343.56
2023-04-16T17:00:16.329Z,98343.06
2023-04-16T17:02:43.924Z,98345.84
2023-04-16T17:05:12.552Z,98344.66
2023-04-16T17:07:39.841Z,98343.91
2023-04-16T17:10:07.358Z,98348.66
2023-04-16T17:12:34.460Z,98355.66
2023-04-16T17:15:01.555Z,98352.00
2023-04-16T17:17:29.230Z,98358.00
2023-04-16T17:19:56.329Z,98354.50
2023-04-16T17:22:23.705Z,98360.06
2023-04-16T17:24:50.908Z,98361.56
2023-04-16T17:27:18.044Z,98372.59
2023-04-16T17:29:45.384Z,98361.41
2023-04-16T17:32:12.691Z,98374.13
2023-04-16T17:34:39.897Z,98377.81
2023-04-16T17:37:07.245Z,98365.91
2023-04-16T17:39:34.316Z,98379.63
2023-04-16T17:42:03.026Z,98371.50
2023-04-16T17:44:30.382Z,98377.47
2023-04-16T17:46:57.443Z,98384.44
2023-04-16T17:49:24.524Z,98389.16
2023-04-16T17:51:52.618Z,98387.66
2023-04-16T17:54:19.847Z,98390.88
2023-04-16T17:56:47.218Z,98388.19
2023-04-16T17:59:14.302Z,98388.22
2023-04-16T18:01:41.661Z,98398.22
2023-04-16T18:04:09.578Z,98403.69
2023-04-16T18:06:36.883Z,98404.22
2023-04-16T18:09:05.771Z,98402.03
2023-04-16T18:11:33.186Z,98409.06
2023-04-16T18:14:00.241Z,98411.84
2023-04-16T18:16:27.518Z,98412.13
2023-04-16T18:18:54.606Z,98422.31
2023-04-16T18:21:22.046Z,98420.34
2023-04-16T18:23:49.133Z,98429.34
2023-04-16T18:26:20.430Z,98431.16
2023-04-16T18:28:49.277Z,98431.19
2023-04-16T18:31:18.410Z,98430.44
2023-04-16T18:33:56.279Z,98435.66
2023-04-16T18:36:26.097Z,98443.13
2023-04-16T18:39:01.491Z,98445.91
2023-04-16T18:41:30.767Z,98442.94
2023-04-16T18:43:58.162Z,98449.13
2023-04-16T18:46:26.729Z,98448.38
2023-04-16T18:48:54.259Z,98449.41
2023-04-16T18:51:21.377Z,98450.91
2023-04-16T18:53:48.420Z,98450.94
2023-04-16T18:56:15.473Z,98458.13
2023-04-16T18:58:43.415Z,98452.94
2023-04-16T19:01:13.957Z,98455.91
2023-04-16T19:03:41.482Z,98458.16
2023-04-16T19:06:09.573Z,98460.91
2023-04-16T19:08:36.617Z,98460.91
2023-04-16T19:11:03.698Z,98458.16
2023-04-16T19:13:32.242Z,98461.13
2023-04-16T19:16:00.836Z,98466.09
2023-04-16T19:18:28.997Z,98465.59
2023-04-16T19:21:02.054Z,98467.56
2023-04-16T19:23:29.670Z,98461.38
2023-04-16T19:25:57.226Z,98470.81
2023-04-16T19:28:25.014Z,98464.09
2023-04-16T19:30:53.318Z,98463.88
2023-04-16T19:33:20.525Z,98458.63
2023-04-16T19:35:47.937Z,98469.78
2023-04-16T19:38:15.055Z,98464.84
2023-04-16T19:40:48.774Z,98461.38
2023-04-16T19:43:15.863Z,98462.13
2023-04-16T19:45:46.976Z,98459.13
2023-04-16T19:48:14.385Z,98464.84
2023-04-16T19:50:42.274Z,98474.28
2023-04-16T19:53:09.597Z,98473.25
2023-04-16T19:55:37.049Z,98473.03
2023-04-16T19:58:06.825Z,98472.53
2023-04-16T20:00:35.065Z,98487.19
2023-04-16T20:03:02.225Z,98475.75
2023-04-16T20:05:29.706Z,98477.97
2023-04-16T20:07:57.060Z,98473.47
2023-04-16T20:10:24.126Z,98478.44
2023-04-16T20:12:51.305Z,98475.97
2023-04-16T20:15:18.886Z,98483.88
2023-04-16T20:17:46.084Z,98478.19
2023-04-16T20:20:15.741Z,98484.41
2023-04-16T20:22:43.388Z,98485.38
2023-04-16T20:25:10.507Z,98481.38
2023-04-16T20:27:37.651Z,98482.91
2023-04-16T20:30:06.341Z,98477.97
2023-04-16T20:32:33.624Z,98478.19
2023-04-16T20:35:01.918Z,98484.88
2023-04-16T20:37:29.203Z,98471.69
2023-04-16T20:39:56.484Z,98474.66
2023-04-16T20:42:26.186Z,98473.19
2023-04-16T20:44:56.371Z,98470.22
2023-04-16T20:47:23.928Z,98476.94
2023-04-16T20:49:52.632Z,98471.69
2023-04-16T20:52:21.655Z,98470.44
2023-04-16T20:54:51.949Z,98475.69
2023-04-16T20:57:19.137Z,98469.47
2023-04-16T20:59:46.393Z,98482.88
2023-04-16T21:02:13.657Z,98479.91
2023-04-16T21:04:41.196Z,98478.44
2023-04-16T21:07:08.319Z,98476.72
2023-04-16T21:09:35.641Z,98473.50
2023-04-16T21:12:02.748Z,98477.97
2023-04-16T21:14:29.809Z,98478.50
2023-04-16T21:16:56.896Z,98484.69
2023-04-16T21:19:23.944Z,98481.72
2023-04-16T21:21:51.227Z,98481.25
2023-04-16T21:24:18.285Z,98476.53
2023-04-16T21:26:45.366Z,98481.28
2023-04-16T21:29:13.082Z,98480.28
2023-04-16T21:31:40.439Z,98483.25
2023-04-16T21:34:07.528Z,98485.50
2023-04-16T21:36:35.057Z,98484.78
2023-04-16T21:39:02.375Z,98487.25
2023-04-16T21:41:29.450Z,98482.06
2023-04-16T21:43:56.610Z,98484.53
2023-04-16T21:46:23.779Z,98489.50
2023-04-16T21:48:50.897Z,98479.56
2023-04-16T21:51:18.179Z,98486.28
2023-04-16T21:53:45.228Z,98483.81
2023-04-16T21:56:12.328Z,98482.06
2023-04-16T21:58:39.376Z,98475.13
2023-04-16T22:01:07.277Z,98479.06
2023-04-16T22:03:39.929Z,98487.50
2023-04-16T22:06:07.744Z,98482.53
2023-04-16T22:08:34.936Z,98484.78
2023-04-16T22:11:02.629Z,98477.84
2023-04-16T22:13:32.480Z,98487.50
2023-04-16T22:16:03.417Z,98480.56
2023-04-16T22:18:33.731Z,98482.28
2023-04-16T22:21:00.944Z,98484.53
2023-04-16T22:23:28.051Z,98487.00
2023-04-16T22:25:56.124Z,98482.78
2023-04-16T22:28:24.250Z,98481.56
2023-04-16T22:30:51.392Z,98483.31
2023-04-16T22:33:18.613Z,98480.06
2023-04-16T22:35:46.003Z,98479.09
2023-04-16T22:38:13.139Z,98483.78
2023-04-16T22:40:40.680Z,98478.81
2023-04-16T22:43:07.731Z,98474.59
2023-04-16T22:45:35.558Z,98480.81
2023-04-16T22:48:03.464Z,98477.56
2023-04-16T22:50:32.108Z,98474.09
2023-04-16T22:52:59.175Z,98475.34
2023-04-16T22:55:26.404Z,98474.84
2023-04-16T22:57:53.482Z,98476.84
2023-04-16T23:00:21.146Z,98476.34
2023-04-16T23:02:48.938Z,98478.31
2023-04-16T23:05:16.414Z,98488.72
2023-04-16T23:07:43.467Z,98487.75
2023-04-16T23:10:10.811Z,98491.72
2023-04-16T23:12:37.849Z,98486.53
2023-04-16T23:15:06.622Z,98490.97
2023-04-16T23:17:34.941Z,98490.47
2023-04-16T23:20:02.492Z,98486.78
2023-04-16T23:22:29.675Z,98488.50
2023-04-16T23:24:56.894Z,98481.06
2023-04-16T23:27:23.929Z,98485.28
2023-04-16T23:29:51.089Z,98480.56
2023-04-16T23:32:18.807Z,98484.53
2023-04-16T23:34:45.980Z,98487.28
2023-04-16T23:37:13.063Z,98486.53
2023-04-16T23:39:41.019Z,98489.25
2023-04-16T23:42:08.116Z,98490.47
2023-04-16T23:44:35.380Z,98485.03
2023-04-16T23:47:02.583Z,98486.53
2023-04-16T23:49:30.068Z,98477.09
2023-04-16T23:51:57.333Z,98482.31
2023-04-16T23:54:24.618Z,98483.06
2023-04-16T23:56:51.663Z,98489.75
2023-04-16T23:59:18.874Z,98494.47
